Time;durP1;ratioP1;P1;durP2;ratioP2;P2;SDS_P1;SDS_P2;PMS_P1;PMS_P2;Temp;Humidity;BMP_temperature;BMP_pressure;BME280_temperature;BME280_humidity;BME280_pressure;Samples;Min_cycle;Max_cycle;Signal;HPM_P1;HPM_P2
2023/09/20 00:03:52;;;;;;;3.92;2.85;;;12.30;99.90;;;13.13;100.00;97909.84;10426495;28;20234;-80
2023/09/20 00:08:58;;;;;;;3.45;3.20;;;12.50;99.90;;;13.23;100.00;97915.50;10426794;28;20230;-79
2023/09/20 00:14:03;;;;;;;3.38;3.08;;;12.50;99.90;;;13.23;100.00;97909.50;10430132;28;20230;-78
2023/09/20 00:19:06;;;;;;;4.13;2.90;;;12.50;99.90;;;13.18;100.00;97905.81;10427205;28;20235;-79
2023/09/20 00:24:10;;;;;;;3.47;3.17;;;12.40;99.90;;;13.07;100.00;97897.59;10427707;28;20236;-79
2023/09/20 00:29:15;;;;;;;3.83;3.60;;;12.30;99.90;;;13.14;100.00;97906.50;10433016;28;20839;-78
2023/09/20 00:34:18;;;;;;;3.22;2.70;;;12.40;99.90;;;13.09;100.00;97896.00;10435475;28;20305;-77
2023/09/20 00:39:23;;;;;;;3.17;2.88;;;12.30;99.90;;;13.13;100.00;97902.16;10441199;28;20228;-80
2023/09/20 00:44:27;;;;;;;3.15;2.95;;;12.30;99.90;;;13.05;100.00;97900.13;10430488;28;20311;-79
2023/09/20 00:49:31;;;;;;;3.05;2.85;;;12.20;99.90;;;12.95;100.00;97892.75;10427963;28;20701;-80
2023/09/20 00:54:34;;;;;;;3.60;3.20;;;12.20;99.90;;;12.97;100.00;97886.03;10429014;28;21096;-80
2023/09/20 00:59:40;;;;;;;4.20;3.72;;;12.10;99.90;;;12.93;100.00;97886.66;10430055;28;20251;-79
2023/09/20 01:04:44;;;;;;;3.72;3.42;;;12.20;99.90;;;12.97;100.00;97878.34;10433311;28;20803;-80
2023/09/20 01:09:48;;;;;;;3.50;3.20;;;12.20;99.90;;;12.97;100.00;97874.91;10433829;28;20229;-80
2023/09/20 01:14:53;;;;;;;3.72;3.45;;;12.20;99.90;;;12.86;100.00;97871.81;10427943;28;20815;-80
2023/09/20 01:19:57;;;;;;;3.28;2.92;;;12.10;99.90;;;12.85;100.00;97864.94;10431019;28;20999;-80
2023/09/20 01:25:03;;;;;;;3.80;3.05;;;12.00;99.90;;;12.77;100.00;97872.25;10426162;28;20611;-80
2023/09/20 01:30:10;;;;;;;4.07;3.78;;;11.90;99.90;;;12.77;100.00;97869.69;10430231;28;20261;-78
2023/09/20 01:35:16;;;;;;;7.50;5.00;;;12.00;99.90;;;12.53;100.00;97865.91;10435230;28;20226;-79
2023/09/20 01:40:23;;;;;;;4.65;4.05;;;11.90;99.90;;;12.72;100.00;97860.00;10432686;28;20232;-81
2023/09/20 01:45:27;;;;;;;4.30;3.53;;;12.00;99.90;;;12.66;100.00;97863.16;10428151;28;20225;-80
2023/09/20 01:50:31;;;;;;;4.88;4.28;;;11.90;99.90;;;12.63;100.00;97866.44;10427424;28;20229;-79
2023/09/20 01:55:37;;;;;;;4.32;3.92;;;11.90;99.90;;;12.70;100.00;97859.03;10428626;28;20332;-80
2023/09/20 02:00:40;;;;;;;5.65;4.32;;;12.00;99.90;;;12.74;100.00;97866.09;10428368;28;20297;-79
2023/09/20 02:05:47;;;;;;;5.05;4.30;;;12.00;99.90;;;12.65;100.00;97865.63;10423602;28;20236;-77
2023/09/20 02:10:52;;;;;;;4.50;4.10;;;12.00;99.90;;;12.62;100.00;97856.13;10430068;28;20217;-79
2023/09/20 02:15:59;;;;;;;4.40;4.00;;;11.90;99.90;;;12.66;100.00;97855.44;10432703;28;20608;-79
2023/09/20 02:21:03;;;;;;;3.53;3.22;;;11.90;99.90;;;12.57;100.00;97857.56;10431155;28;20233;-76
2023/09/20 02:26:08;;;;;;;4.32;3.95;;;11.70;99.90;;;12.55;100.00;97866.88;10425840;28;20237;-78
2023/09/20 02:31:12;;;;;;;3.92;3.63;;;11.70;99.90;;;12.46;100.00;97856.16;10428207;28;20664;-78
2023/09/20 02:36:16;;;;;;;4.10;3.80;;;11.70;99.90;;;12.47;100.00;97856.22;10426908;28;20245;-79
2023/09/20 02:41:21;;;;;;;4.57;3.60;;;11.70;99.90;;;12.45;100.00;97851.81;10429382;28;20591;-77
2023/09/20 02:46:24;;;;;;;4.45;4.10;;;11.70;99.90;;;12.34;100.00;97857.31;10429219;28;20233;-82
2023/09/20 02:51:28;;;;;;;3.85;3.55;;;11.60;99.90;;;12.37;100.00;97860.03;10425344;28;20230;-79
2023/09/20 02:56:32;;;;;;;4.57;4.13;;;11.70;99.90;;;12.35;100.00;97850.50;10426095;28;20291;-79
2023/09/20 03:01:36;;;;;;;4.35;3.95;;;11.70;99.90;;;12.37;100.00;97859.16;10432802;28;20229;-79
2023/09/20 03:06:39;;;;;;;4.45;4.00;;;11.60;99.90;;;12.36;100.00;97852.25;10427539;28;20885;-77
2023/09/20 03:11:44;;;;;;;5.13;4.15;;;11.60;99.90;;;12.35;100.00;97840.25;10421785;28;20260;-79
2023/09/20 03:16:47;;;;;;;5.60;4.35;;;11.60;99.90;;;12.34;100.00;97829.13;10431288;28;20229;-79
2023/09/20 03:21:51;;;;;;;5.47;4.97;;;11.60;99.90;;;12.16;100.00;97829.09;10426515;28;20222;-78
2023/09/20 03:26:55;;;;;;;4.47;4.18;;;11.50;99.90;;;12.17;100.00;97829.97;10424633;28;20228;-79
2023/09/20 03:32:00;;;;;;;4.63;4.22;;;11.50;99.90;;;12.23;100.00;97824.25;10427190;28;20252;-79
2023/09/20 03:37:09;;;;;;;4.10;3.70;;;11.50;99.90;;;12.22;100.00;97809.66;10427263;28;20220;-79
2023/09/20 03:42:13;;;;;;;4.60;4.20;;;11.40;99.90;;;12.10;100.00;97815.06;10432025;28;20680;-77
2023/09/20 03:47:17;;;;;;;6.82;4.63;;;11.40;99.90;;;12.14;100.00;97799.94;10428248;28;20729;-79
2023/09/20 03:52:20;;;;;;;3.97;3.58;;;11.30;99.90;;;12.10;100.00;97810.84;10424904;28;20313;-78
2023/09/20 03:57:25;;;;;;;4.47;4.03;;;11.30;99.90;;;12.09;100.00;97801.38;10425602;28;20230;-78
2023/09/20 04:02:29;;;;;;;5.07;3.53;;;11.30;99.90;;;12.12;100.00;97805.78;10425537;28;20364;-79
2023/09/20 04:07:33;;;;;;;3.97;3.60;;;11.40;99.90;;;12.10;100.00;97795.47;10429995;28;21096;-78
2023/09/20 04:12:38;;;;;;;3.63;3.33;;;11.30;99.90;;;12.04;100.00;97792.56;10433865;28;20252;-78
2023/09/20 04:17:41;;;;;;;4.60;4.20;;;11.30;99.90;;;11.77;100.00;97796.28;10429511;28;20233;-79
2023/09/20 04:22:45;;;;;;;6.07;4.18;;;11.10;99.90;;;11.77;100.00;97796.28;10421853;28;20236;-79
2023/09/20 04:27:50;;;;;;;4.55;4.13;;;11.10;99.90;;;11.90;100.00;97793.56;10426916;28;20235;-78
2023/09/20 04:32:55;;;;;;;5.60;4.55;;;11.20;99.90;;;11.91;100.00;97790.22;10426689;28;20225;-79
2023/09/20 04:37:58;;;;;;;4.63;4.22;;;11.30;99.90;;;12.00;100.00;97785.56;10422817;28;20230;-78
2023/09/20 04:43:06;;;;;;;6.50;6.00;;;11.30;99.90;;;11.99;100.00;97788.03;10425799;28;20230;-77
2023/09/20 04:48:10;;;;;;;4.80;4.40;;;11.20;99.90;;;11.95;100.00;97785.31;10428204;28;20236;-78
2023/09/20 04:53:13;;;;;;;3.55;3.25;;;11.10;99.90;;;11.91;100.00;97792.78;10422809;28;20229;-79
2023/09/20 04:58:18;;;;;;;3.92;3.53;;;11.00;99.90;;;11.65;100.00;97796.53;10426490;28;20233;-79
2023/09/20 05:03:22;;;;;;;3.60;2.97;;;10.90;99.90;;;11.66;100.00;97799.16;10440423;28;20233;-79
2023/09/20 05:08:25;;;;;;;3.85;3.55;;;10.90;99.90;;;11.54;100.00;97800.22;10441002;28;20628;-79
2023/09/20 05:13:30;;;;;;;3.65;3.42;;;10.90;99.90;;;11.67;100.00;97792.38;10449784;28;20238;-78
2023/09/20 05:18:34;;;;;;;4.25;3.85;;;10.90;99.90;;;11.67;100.00;97800.91;10397263;28;1372642;-79
2023/09/20 05:23:37;;;;;;;5.10;4.10;;;11.00;99.90;;;11.73;100.00;97796.13;10430905;28;20237;-78
2023/09/20 05:28:42;;;;;;;4.10;3.70;;;11.10;99.90;;;11.85;100.00;97797.56;10428241;28;20559;-79
2023/09/20 05:33:45;;;;;;;5.03;4.53;;;11.20;99.90;;;12.01;100.00;97801.81;10430185;28;20228;-77
2023/09/20 05:38:49;;;;;;;4.75;4.05;;;11.30;99.90;;;12.14;100.00;97794.81;10428764;28;20226;-80
2023/09/20 05:43:54;;;;;;;4.50;4.10;;;11.40;99.90;;;12.23;100.00;97804.63;10426848;28;20956;-79
2023/09/20 05:48:57;;;;;;;4.10;3.70;;;11.60;99.90;;;12.51;100.00;97804.31;10431030;28;20745;-77
2023/09/20 05:54:00;;;;;;;4.03;3.63;;;11.80;99.90;;;12.80;100.00;97808.25;10424351;28;20257;-78
2023/09/20 05:59:07;;;;;;;3.60;3.30;;;12.10;99.90;;;13.09;97.63;97803.63;10425686;28;20229;-78
2023/09/20 06:04:10;;;;;;;4.55;4.18;;;12.20;99.90;;;13.07;96.94;97794.97;10429064;28;20299;-80
2023/09/20 06:09:15;;;;;;;5.47;3.95;;;12.10;99.90;;;13.18;98.16;97798.03;10426521;28;20263;-80
2023/09/20 06:14:22;;;;;;;3.85;3.60;;;12.40;99.90;;;13.84;98.11;97789.00;10425883;28;20236;-80
2023/09/20 06:19:30;;;;;;;4.13;3.72;;;13.00;99.90;;;14.74;94.08;97794.50;10424790;28;20303;-80
2023/09/20 06:24:34;;;;;;;4.97;3.38;;;13.60;99.90;;;15.55;89.57;97788.97;10428349;28;20751;-79
2023/09/20 06:29:39;;;;;;;3.75;3.30;;;14.10;99.90;;;16.32;84.89;97796.84;10425942;28;20679;-79
2023/09/20 06:34:42;;;;;;;3.92;3.53;;;14.90;99.90;;;16.89;80.83;97799.56;10429004;28;20290;-80
2023/09/20 06:40:03;;;;;;;4.03;3.60;;;15.40;99.90;;;17.33;74.86;97793.16;10457580;28;20223;-80
2023/09/20 06:45:09;;;;;;;3.38;3.08;;;15.70;99.90;;;17.94;74.13;97785.41;10457248;28;20225;-82
2023/09/20 06:50:13;;;;;;;3.60;3.33;;;16.00;99.90;;;18.99;71.20;97788.91;10450989;28;20282;-79
2023/09/20 06:55:18;;;;;;;3.17;2.97;;;16.80;99.90;;;19.51;67.95;97774.47;10465517;28;20583;-79
2023/09/20 07:00:26;;;;;;;2.92;2.67;;;17.10;99.90;;;19.95;64.36;97777.97;10465327;28;20228;-80
2023/09/20 07:05:30;;;;;;;3.92;2.90;;;17.80;99.90;;;19.46;65.91;97768.31;10460467;28;20669;-80
2023/09/20 07:10:36;;;;;;;4.07;2.92;;;17.80;99.90;;;19.24;71.10;97760.09;10464851;28;20228;-79
2023/09/20 07:15:43;;;;;;;5.25;3.05;;;17.90;99.90;;;19.78;68.50;97756.91;10467108;28;20225;-80
2023/09/20 07:20:48;;;;;;;3.33;3.10;;;18.50;99.90;;;19.84;66.81;97748.34;10463118;28;20282;-81
2023/09/20 07:25:51;;;;;;;3.60;3.30;;;18.60;99.90;;;19.98;65.67;97751.22;10458583;28;20260;-80
2023/09/20 07:30:56;;;;;;;3.25;2.85;;;18.70;99.90;;;20.18;66.16;97742.06;10457797;28;20224;-81
2023/09/20 07:36:00;;;;;;;4.07;3.70;;;18.90;99.90;;;20.54;65.03;97735.72;10446908;28;20245;-81
2023/09/20 07:41:09;;;;;;;3.78;3.45;;;19.30;99.90;;;20.62;65.21;97731.53;10449080;28;20583;-81
2023/09/20 07:46:16;;;;;;;3.20;2.90;;;19.70;99.90;;;20.73;62.01;97728.25;10450807;28;20221;-80
2023/09/20 07:51:24;;;;;;;3.40;2.80;;;19.80;99.90;;;21.12;60.96;97725.34;10443872;28;20323;-80
2023/09/20 07:56:28;;;;;;;3.13;2.42;;;20.20;99.90;;;21.41;60.27;97719.66;10458575;28;20234;-79
2023/09/20 08:01:33;;;;;;;2.60;2.40;;;20.50;99.90;;;21.68;59.43;97719.94;10454405;28;20285;-82
2023/09/20 08:06:36;;;;;;;3.50;2.55;;;20.80;99.90;;;22.18;58.65;97708.34;10451436;28;20252;-81
2023/09/20 08:11:40;;;;;;;3.22;2.28;;;21.50;99.90;;;22.36;59.33;97705.00;10448818;28;20815;-82
2023/09/20 08:16:44;;;;;;;3.13;2.65;;;21.60;99.90;;;22.76;58.00;97689.66;10451307;28;20232;-82
2023/09/20 08:22:04;;;;;;;3.00;2.35;;;22.10;99.90;;;23.02;56.46;97668.97;10451409;28;20227;-81
2023/09/20 09:04:45;;;;;;;2.60;2.40;;;23.80;97.70;;;24.40;50.03;97693.63;10467608;28;20287;-81
2023/09/20 09:09:49;;;;;;;2.50;2.25;;;23.80;96.40;;;24.41;50.94;97684.06;10463736;28;20716;-80
2023/09/20 09:14:52;;;;;;;2.50;2.00;;;23.80;97.50;;;24.37;49.51;97682.31;10461330;28;20245;-81
2023/09/20 09:19:59;;;;;;;2.25;1.90;;;23.80;96.50;;;24.63;50.91;97680.59;10465191;28;20717;-82
2023/09/20 09:25:03;;;;;;;2.35;2.15;;;23.90;97.50;;;24.86;50.68;97672.69;10459917;28;20531;-79
2023/09/20 09:30:11;;;;;;;2.40;1.80;;;24.20;96.70;;;25.20;45.44;97670.00;10468593;28;20224;-81
2023/09/20 09:35:18;;;;;;;2.42;2.05;;;24.70;93.10;;;25.08;47.68;97668.25;10463029;28;20231;-81
2023/09/20 09:40:52;;;;;;;2.33;2.13;;;24.40;94.70;;;25.15;44.91;97662.19;10457243;28;20377;-80
2023/09/20 09:46:04;;;;;;;2.10;1.90;;;24.50;92.90;;;25.34;47.43;97655.09;10458880;28;20252;-80
2023/09/20 09:51:10;;;;;;;2.13;1.92;;;24.80;94.50;;;25.43;46.04;97638.47;10482099;28;20227;-80
2023/09/20 09:56:14;;;;;;;2.38;1.73;;;24.60;93.60;;;25.45;45.64;97646.34;10465957;28;20257;-80
2023/09/20 10:01:20;;;;;;;2.63;1.70;;;24.70;93.30;;;25.34;46.37;97635.91;10441502;28;20220;-81
2023/09/20 10:06:29;;;;;;;2.20;2.00;;;24.70;93.70;;;25.65;46.94;97625.28;10453449;28;20720;-81
2023/09/20 10:11:33;;;;;;;1.85;1.75;;;24.90;94.60;;;25.82;44.81;97618.16;10449829;28;20217;-81
2023/09/20 10:16:42;;;;;;;2.15;1.83;;;25.10;92.40;;;25.75;45.65;97619.06;10464043;28;20712;-81
2023/09/20 10:22:08;;;;;;;2.05;1.65;;;25.10;93.20;;;25.93;43.17;97613.75;10445266;28;20236;-81
2023/09/20 10:27:17;;;;;;;2.58;1.80;;;25.40;91.10;;;25.57;44.80;97610.47;10446891;28;20710;-82
2023/09/20 10:32:21;;;;;;;1.98;1.77;;;25.00;92.00;;;25.76;44.51;97605.13;10449742;28;20221;-82
2023/09/20 10:37:27;;;;;;;1.80;1.70;;;25.10;92.00;;;25.87;44.55;97595.47;10450943;28;20302;-80
2023/09/20 10:42:31;;;;;;;2.05;1.95;;;25.20;91.70;;;25.63;45.52;97584.25;10457180;28;20236;-82
2023/09/20 10:47:37;;;;;;;2.53;2.00;;;24.90;92.70;;;25.51;44.37;97589.56;10449293;28;20234;-80
2023/09/20 10:52:57;;;;;;;2.70;1.90;;;24.80;91.60;;;25.73;45.44;97573.72;10452774;28;20223;-82
2023/09/20 10:58:02;;;;;;;2.30;2.10;;;25.10;92.80;;;25.90;43.59;97565.75;10445714;28;20248;-81
2023/09/20 11:03:07;;;;;;;3.35;2.25;;;25.40;91.10;;;25.79;44.10;97564.06;10458553;28;20650;-82
2023/09/20 11:08:14;;;;;;;2.22;2.08;;;25.00;91.70;;;25.76;44.06;97552.75;10450505;28;20623;-80
2023/09/20 11:13:21;;;;;;;2.00;1.90;;;25.10;91.30;;;25.61;42.83;97544.13;10445575;28;20654;-82
2023/09/20 11:18:25;;;;;;;2.50;2.30;;;25.00;90.20;;;25.77;41.74;97541.38;10446446;28;20236;-79
2023/09/20 11:23:31;;;;;;;3.33;2.33;;;25.00;89.20;;;25.64;43.54;97522.31;10447482;28;20224;-81
2023/09/20 11:28:37;;;;;;;2.88;2.35;;;24.90;90.80;;;25.81;42.58;97524.75;10447537;28;20669;-80
2023/09/20 11:33:40;;;;;;;2.42;2.20;;;25.00;90.30;;;25.84;40.31;97520.41;10457278;28;20237;-82
2023/09/20 11:38:45;;;;;;;2.22;2.13;;;25.00;86.90;;;25.44;41.15;97514.59;10441698;28;20283;-82
2023/09/20 11:43:48;;;;;;;2.30;2.10;;;24.80;87.00;;;25.27;43.40;97519.09;10440195;28;20239;-81
2023/09/20 11:48:52;;;;;;;2.83;2.13;;;24.50;90.80;;;25.60;41.61;97518.81;10444042;28;20236;-79
2023/09/20 11:53:57;;;;;;;1.80;1.70;;;24.90;88.10;;;25.59;41.75;97504.00;10443124;28;20709;-81
2023/09/20 11:59:03;;;;;;;2.05;1.85;;;24.90;88.40;;;25.75;42.98;97499.47;10445689;28;20641;-82
2023/09/20 12:04:07;;;;;;;1.83;1.73;;;25.00;90.10;;;25.91;42.25;97495.03;10448074;28;20228;-81
2023/09/20 12:09:12;;;;;;;1.77;1.67;;;25.00;90.00;;;25.75;43.58;97488.16;10441543;28;20271;-82
2023/09/20 12:14:16;;;;;;;2.17;1.98;;;24.90;90.70;;;25.89;41.87;97480.19;10447396;28;20233;-81
2023/09/20 12:19:21;;;;;;;2.28;1.92;;;25.30;89.20;;;25.91;42.74;97476.69;10446931;28;20238;-82
2023/09/20 12:24:25;;;;;;;2.00;1.75;;;25.40;90.00;;;25.99;42.12;97477.47;10457587;28;20313;-79
2023/09/20 12:29:28;;;;;;;1.70;1.60;;;25.40;88.80;;;25.86;43.00;97465.38;10454912;28;20939;-82
2023/09/20 12:34:32;;;;;;;2.13;1.50;;;25.30;89.90;;;25.73;43.34;97453.28;10456862;28;20228;-82
2023/09/20 12:39:38;;;;;;;2.20;1.90;;;25.10;90.10;;;25.72;44.00;97441.91;10460556;28;20248;-82
2023/09/20 12:44:44;;;;;;;2.88;2.50;;;25.10;90.20;;;25.73;43.23;97432.34;10458495;28;20212;-81
2023/09/20 12:49:47;;;;;;;2.15;2.05;;;25.10;90.20;;;25.53;44.31;97429.91;10456820;28;20232;-82
2023/09/20 12:54:52;;;;;;;1.73;1.63;;;24.80;90.90;;;25.59;43.62;97420.22;10449678;28;20631;-82
2023/09/20 12:59:57;;;;;;;1.80;1.67;;;24.80;90.60;;;25.73;44.20;97416.63;10449070;28;20737;-80
2023/09/20 13:05:00;;;;;;;2.47;1.48;;;24.90;91.00;;;25.58;44.36;97402.81;10447510;28;20228;-83
2023/09/20 13:10:08;;;;;;;2.03;1.92;;;24.80;91.20;;;25.57;44.85;97385.34;10457604;28;20876;-81
2023/09/20 13:15:14;;;;;;;2.22;1.70;;;24.90;91.30;;;25.82;43.66;97385.09;10453774;28;20887;-82
2023/09/20 13:20:18;;;;;;;1.98;1.40;;;25.10;90.50;;;26.00;43.17;97373.56;10451176;28;20607;-82
2023/09/20 13:25:26;;;;;;;2.03;1.38;;;25.20;90.20;;;25.93;43.14;97372.78;10454367;28;20220;-81
2023/09/20 13:30:31;;;;;;;1.90;1.77;;;25.30;89.50;;;25.75;44.64;97362.47;10454897;28;20248;-82
2023/09/20 13:35:35;;;;;;;1.60;1.50;;;25.10;91.20;;;25.92;43.97;97359.69;10440245;28;20244;-82
2023/09/20 13:40:42;;;;;;;1.60;1.50;;;25.20;90.80;;;25.88;43.90;97352.75;10447135;28;20275;-82
2023/09/20 13:45:45;;;;;;;1.70;1.60;;;25.10;90.60;;;25.86;45.14;97344.91;10460606;28;20225;-82
2023/09/20 13:50:49;;;;;;;2.78;1.60;;;25.00;91.70;;;25.90;44.86;97330.91;10459697;28;20607;-82
2023/09/20 13:56:02;;;;;;;2.53;1.50;;;25.00;91.60;;;25.85;44.77;97327.47;10450855;28;20239;-82
2023/09/20 14:01:06;;;;;;;2.05;1.60;;;25.00;91.20;;;26.20;44.49;97313.91;10477582;28;20225;-82
2023/09/20 14:06:09;;;;;;;1.88;1.30;;;25.40;91.20;;;25.88;43.48;97311.72;10446995;28;20651;-81
2023/09/20 14:11:15;;;;;;;1.95;1.52;;;25.20;90.20;;;25.88;44.16;97300.38;10448860;28;20282;-81
2023/09/20 14:16:18;;;;;;;2.10;1.60;;;25.10;90.80;;;25.98;43.67;97307.22;10461176;28;20228;-81
2023/09/20 14:21:22;;;;;;;1.90;1.40;;;25.10;90.60;;;25.84;44.34;97289.09;10455664;28;20716;-82
2023/09/20 14:26:27;;;;;;;1.95;1.27;;;25.00;91.20;;;25.97;44.08;97288.03;10443452;28;20286;-80
2023/09/20 14:31:31;;;;;;;1.40;1.30;;;25.10;90.80;;;25.86;43.73;97282.06;10438284;28;20225;-82
2023/09/20 14:36:34;;;;;;;2.45;1.60;;;25.00;90.70;;;25.97;45.32;97280.16;10448143;28;20727;-79
2023/09/20 14:41:39;;;;;;;2.85;1.60;;;25.10;91.30;;;26.12;43.70;97272.97;10447079;28;20267;-82
2023/09/20 14:46:43;;;;;;;2.53;1.33;;;25.30;90.60;;;26.18;43.71;97263.31;10445352;28;20225;-81
2023/09/20 14:51:47;;;;;;;1.55;1.45;;;25.40;90.50;;;26.01;43.92;97247.81;10446714;28;20255;-81
2023/09/20 14:56:52;;;;;;;2.42;1.60;;;25.20;90.70;;;25.90;44.05;97247.09;10444442;28;20600;-81
2023/09/20 15:01:55;;;;;;;1.30;1.20;;;25.00;90.50;;;25.86;44.26;97245.41;10446049;28;20232;-81
2023/09/20 15:06:59;;;;;;;1.58;1.48;;;24.90;90.80;;;25.87;44.31;97234.06;10430700;28;20221;-80
2023/09/20 15:12:04;;;;;;;1.50;1.40;;;24.90;91.60;;;25.82;43.62;97243.69;10438579;28;20232;-79
2023/09/20 15:17:07;;;;;;;1.65;1.50;;;24.90;90.60;;;25.95;43.75;97229.53;10427457;28;20233;-80
2023/09/20 15:22:12;;;;;;;1.50;1.40;;;24.90;90.80;;;25.88;43.41;97224.44;10429113;28;20259;-80
2023/09/20 15:27:17;;;;;;;2.83;1.58;;;24.90;90.30;;;26.15;44.06;97217.91;10431717;28;20225;-81
2023/09/20 15:32:20;;;;;;;1.58;1.30;;;25.20;90.80;;;25.95;43.74;97208.59;10429650;28;20225;-80
2023/09/20 15:37:26;;;;;;;1.40;1.30;;;25.10;90.40;;;25.97;43.97;97204.22;10438957;28;20225;-80
2023/09/20 15:42:31;;;;;;;1.63;1.48;;;25.00;90.70;;;26.03;44.14;97196.25;10442713;28;20970;-80
2023/09/20 15:47:34;;;;;;;1.40;1.30;;;25.10;90.80;;;26.09;43.42;97191.81;10433561;28;20221;-80
2023/09/20 15:52:39;;;;;;;1.50;1.40;;;25.20;90.30;;;26.06;43.40;97187.47;10439928;28;20235;-81
2023/09/20 15:57:45;;;;;;;3.03;1.50;;;25.40;90.10;;;25.91;44.06;97180.72;10449566;28;20585;-83
2023/09/20 16:02:49;;;;;;;1.65;1.55;;;25.10;90.40;;;25.55;45.95;97180.34;10458530;28;20229;-81
2023/09/20 16:07:53;;;;;;;2.00;1.38;;;24.70;91.70;;;25.44;45.48;97178.72;10454848;28;20227;-82
2023/09/20 16:12:57;;;;;;;1.90;1.70;;;24.50;91.60;;;25.48;45.50;97186.53;10459493;28;20212;-81
2023/09/20 16:18:03;;;;;;;1.45;1.35;;;24.50;91.80;;;25.29;46.82;97177.19;10456695;28;20552;-82
2023/09/20 16:23:07;;;;;;;1.60;1.50;;;24.30;92.30;;;25.24;47.34;97168.50;10459971;28;20231;-82
2023/09/20 16:28:12;;;;;;;1.73;1.48;;;24.20;92.90;;;25.04;48.54;97163.47;10456250;28;20288;-80
2023/09/20 16:33:15;;;;;;;2.30;1.63;;;24.00;94.20;;;24.81;50.08;97156.78;10448400;28;20243;-81
2023/09/20 16:38:19;;;;;;;2.67;1.70;;;23.80;95.80;;;24.57;51.55;97157.88;10448741;28;20251;-82
2023/09/20 16:43:26;;;;;;;2.53;1.50;;;23.50;96.60;;;24.32;53.78;97161.56;10462456;28;20274;-82
2023/09/20 16:48:29;;;;;;;2.25;2.08;;;23.30;97.90;;;24.06;55.12;97154.81;10454701;28;20236;-81
2023/09/20 16:53:36;;;;;;;2.25;1.70;;;23.00;99.10;;;23.80;56.64;97155.88;10441737;28;20227;-82
2023/09/20 16:58:43;;;;;;;2.35;1.73;;;22.80;99.90;;;23.54;57.41;97150.78;10436871;28;20233;-81
2023/09/20 17:03:46;;;;;;;2.13;1.90;;;22.50;99.90;;;23.32;58.39;97152.66;10439058;28;20216;-82
2023/09/20 17:08:50;;;;;;;1.88;1.77;;;22.30;99.90;;;23.15;61.55;97149.25;10460542;28;20242;-85
2023/09/20 17:13:55;;;;;;;2.00;1.90;;;22.10;99.90;;;22.88;63.54;97148.44;10457695;28;20278;-82
2023/09/20 17:18:59;;;;;;;2.70;2.17;;;21.80;99.90;;;22.71;64.29;97147.63;10449979;28;20282;-83
2023/09/20 17:24:05;;;;;;;2.20;1.98;;;21.70;99.90;;;22.54;66.08;97152.84;10467621;28;20224;-83
2023/09/20 17:29:17;;;;;;;2.33;2.13;;;21.40;99.90;;;22.41;66.74;97157.22;10460477;28;20685;-82
2023/09/20 17:34:20;;;;;;;2.42;2.22;;;21.40;99.90;;;22.25;68.02;97165.91;10456587;28;20234;-83
2023/09/20 17:39:28;;;;;;;3.15;2.22;;;21.20;99.90;;;22.10;68.56;97160.69;10464753;28;20233;-83
2023/09/20 17:44:46;;;;;;;2.58;2.28;;;21.00;99.90;;;21.98;69.21;97157.22;10443236;28;20589;-84
2023/09/20 17:50:21;;;;;;;3.88;2.55;;;20.90;99.90;;;21.77;69.90;97151.97;10467288;28;20652;-83
2023/09/20 17:55:27;;;;;;;2.92;2.08;;;20.70;99.90;;;21.38;71.83;97156.22;10442926;28;20748;-83
2023/09/20 18:00:34;;;;;;;2.40;2.20;;;20.40;99.90;;;21.42;71.18;97168.38;10461426;28;20237;-82
2023/09/20 18:05:37;;;;;;;2.38;2.17;;;20.40;99.90;;;21.15;73.00;97182.13;10447922;28;20233;-82
2023/09/20 18:10:41;;;;;;;2.92;2.10;;;20.20;99.90;;;20.89;74.03;97175.06;10440864;28;20283;-79
2023/09/20 18:15:46;;;;;;;2.10;2.00;;;19.90;99.90;;;20.68;74.57;97175.78;10435411;28;20225;-82
2023/09/20 18:20:54;;;;;;;2.20;2.00;;;19.70;99.90;;;20.44;75.48;97178.19;10425454;28;20359;-82
2023/09/20 18:25:58;;;;;;;3.20;2.10;;;19.50;99.90;;;20.26;75.76;97181.53;10435239;28;20316;-83
2023/09/20 18:31:15;;;;;;;2.13;1.80;;;19.40;99.90;;;20.21;75.83;97172.84;10431864;28;20232;-82
2023/09/20 18:36:20;;;;;;;2.65;2.25;;;19.30;99.90;;;20.00;77.40;97194.25;10422053;28;20259;-81
2023/09/20 18:41:23;;;;;;;2.20;2.00;;;19.10;99.90;;;19.87;77.54;97184.66;10436860;28;20256;-83
2023/09/20 18:46:28;;;;;;;2.10;2.00;;;18.90;99.90;;;19.77;78.70;97181.06;10445124;28;20259;-83
2023/09/20 18:51:33;;;;;;;2.50;2.17;;;18.90;99.90;;;19.64;79.27;97193.03;10450348;28;20228;-84
2023/09/20 18:56:37;;;;;;;2.10;2.00;;;18.70;99.90;;;19.56;78.61;97186.88;10464032;28;20225;-83
2023/09/20 19:01:43;;;;;;;2.17;2.00;;;18.60;99.90;;;19.50;79.38;97181.63;10477243;28;20311;-85
2023/09/20 19:06:48;;;;;;;2.35;2.00;;;18.60;99.90;;;19.18;81.51;97173.50;10447435;28;20239;-82
2023/09/20 19:11:51;;;;;;;2.50;2.30;;;18.30;99.90;;;19.08;81.74;97178.53;10438667;28;20297;-84
2023/09/20 19:16:56;;;;;;;2.30;2.10;;;18.20;99.90;;;19.02;82.12;97187.97;10432098;28;20312;-84
2023/09/20 19:22:00;;;;;;;2.63;2.20;;;18.20;99.90;;;18.95;81.98;97189.63;10430478;28;20221;-83
2023/09/20 19:27:04;;;;;;;2.63;2.20;;;18.10;99.90;;;18.95;83.06;97192.22;10427650;28;20217;-84
2023/09/20 19:32:09;;;;;;;2.95;1.92;;;18.00;99.90;;;18.99;85.50;97193.13;10435799;28;20224;-81
2023/09/20 19:37:12;;;;;;;2.30;2.10;;;17.90;99.90;;;18.88;85.68;97193.81;10437964;28;20296;-83
2023/09/20 19:42:15;;;;;;;2.33;2.13;;;17.80;99.90;;;18.69;86.74;97197.00;10431632;28;20232;-83
2023/09/20 19:47:20;;;;;;;3.03;2.63;;;17.70;99.90;;;18.40;88.48;97197.44;10430279;28;20245;-82
2023/09/20 19:52:23;;;;;;;3.25;2.60;;;17.40;99.90;;;18.38;88.71;97188.78;10448758;28;20302;-83
2023/09/20 19:57:27;;;;;;;3.17;2.50;;;17.40;99.90;;;18.23;89.94;97198.88;10447899;28;20243;-84
2023/09/20 20:02:33;;;;;;;2.60;2.40;;;17.20;99.90;;;18.13;90.97;97194.41;10425113;28;20244;-82
2023/09/20 20:07:37;;;;;;;3.17;2.88;;;17.10;99.90;;;17.93;91.87;97202.69;10422174;28;20221;-83
2023/09/20 20:12:41;;;;;;;2.95;2.67;;;16.90;99.90;;;17.62;92.57;97198.63;10433870;28;20862;-81
2023/09/20 20:17:48;;;;;;;2.92;2.72;;;16.70;99.90;;;17.67;92.17;97198.72;10427928;28;21090;-83
2023/09/20 20:22:55;;;;;;;2.38;2.17;;;16.70;99.90;;;17.49;92.46;97202.72;10427288;28;20987;-84
2023/09/20 20:28:01;;;;;;;3.40;2.63;;;16.60;99.90;;;17.54;91.66;97201.09;10433848;28;20220;-83
2023/09/20 20:33:07;;;;;;;2.95;2.30;;;16.50;99.90;;;17.43;92.77;97196.56;10448242;28;20227;-82
2023/09/20 20:38:13;;;;;;;3.30;2.75;;;16.40;99.90;;;17.36;92.38;97195.56;10449207;28;20287;-81
2023/09/20 20:43:16;;;;;;;3.75;2.90;;;16.40;99.90;;;17.21;93.01;97195.25;10453771;28;20236;-81
2023/09/20 20:48:21;;;;;;;2.67;2.30;;;16.30;99.90;;;17.26;93.54;97188.47;10436214;28;20930;-84
2023/09/20 20:53:25;;;;;;;3.30;2.10;;;16.30;99.90;;;17.05;93.40;97189.78;10433555;28;20245;-83
2023/09/20 20:58:31;;;;;;;2.97;2.40;;;16.10;99.90;;;16.80;94.26;97182.38;10439986;28;20233;-83
2023/09/20 21:03:35;;;;;;;2.53;2.33;;;16.00;99.90;;;16.87;94.37;97185.09;10438683;28;20805;-81
2023/09/20 21:08:42;;;;;;;2.78;2.40;;;16.00;99.90;;;16.83;94.79;97177.28;10436657;28;20236;-83
2023/09/20 21:13:46;;;;;;;2.40;2.20;;;16.00;99.90;;;16.87;95.00;97181.63;10432257;28;20797;-83
2023/09/20 21:18:51;;;;;;;2.60;2.40;;;16.00;99.90;;;16.80;95.36;97177.19;10434009;28;20304;-83
2023/09/20 21:23:54;;;;;;;2.90;2.63;;;16.00;99.90;;;16.72;96.18;97178.72;10434590;28;20228;-84
2023/09/20 21:28:58;;;;;;;2.70;2.50;;;15.90;99.90;;;16.75;95.98;97171.03;10427610;28;20617;-83
2023/09/20 21:34:03;;;;;;;3.63;2.72;;;15.90;99.90;;;16.59;96.19;97173.25;10435698;28;20275;-83
2023/09/20 21:39:07;;;;;;;2.63;2.42;;;15.80;99.90;;;16.60;95.88;97164.69;10430912;28;20222;-83
2023/09/20 21:44:10;;;;;;;2.92;2.72;;;15.80;99.90;;;16.52;96.52;97161.06;10428756;28;20324;-84